Boston, Massachusetts
Current Conditions -  °F | °C
As of 9:54 AM on Thursday 18 Dec 2014 (Local Time) from KBOS Reporting Station
Broken Clouds Broken Clouds  
Wind Chill:   Ceiling: 4800
Heat Index:   Visibility: 10mi
Dew Point:   Wind: 16mph
Humidity: 73%   Direction: 280°W
Pressure: 29.78"   Gusts: 25mph
Location:  42.36°N, 71.06°W
Report Text: KBOS 181454Z 28014G22KT 10SM BKN048 BKN060 BKN080 BKN200 04/00 A2978 RMK AO2 RAE1355 SLP083 60000 T00440000 51010
Loading
Personal Weather Stations






























Interactive Weather Map New forecast layout! Learn more

10-Day Weather Forecast

Advertisements
Track Severe Weather on mobile